createdAt,value
2017-08-01T00:02:10.941Z,88.00
2017-08-01T00:04:39.250Z,87.90
2017-08-01T00:07:07.590Z,87.10
2017-08-01T00:09:35.929Z,87.30
2017-08-01T00:15:04.594Z,89.40
2017-08-01T00:17:33.069Z,89.00
2017-08-01T00:20:01.384Z,89.30
2017-08-01T00:22:29.687Z,89.10
2017-08-01T00:24:58.034Z,88.70
2017-08-01T00:27:26.341Z,89.70
2017-08-01T00:29:54.686Z,90.90
2017-08-01T00:32:23.030Z,90.70
2017-08-01T00:34:51.360Z,90.30
2017-08-01T00:37:19.673Z,89.30
2017-08-01T00:39:48.006Z,88.50
2017-08-01T00:42:16.328Z,88.00
2017-08-01T00:44:44.656Z,88.50
2017-08-01T00:47:13.286Z,89.80
2017-08-01T00:49:41.615Z,90.80
2017-08-01T00:52:09.972Z,91.40
2017-08-01T00:54:38.323Z,91.30
2017-08-01T00:57:06.630Z,91.60
2017-08-01T00:59:34.948Z,91.50
2017-08-01T01:02:03.297Z,91.10
2017-08-01T01:04:31.619Z,90.80
2017-08-01T01:06:59.963Z,90.40
2017-08-01T01:09:28.297Z,90.20
2017-08-01T01:11:56.630Z,90.10
2017-08-01T01:14:24.946Z,89.30
2017-08-01T01:16:53.292Z,88.70
2017-08-01T01:19:21.632Z,88.00
2017-08-01T01:21:49.965Z,89.20
2017-08-01T01:24:18.285Z,88.70
2017-08-01T01:26:46.638Z,89.20
2017-08-01T01:29:14.957Z,89.80
2017-08-01T01:31:43.418Z,89.30
2017-08-01T01:34:11.761Z,88.70
2017-08-01T01:36:40.081Z,88.90
2017-08-01T01:39:08.419Z,88.10
2017-08-01T01:41:36.736Z,88.20
2017-08-01T01:44:05.076Z,88.50
2017-08-01T01:46:33.388Z,88.20
2017-08-01T01:49:01.736Z,88.30
2017-08-01T01:51:30.059Z,88.40
2017-08-01T01:53:58.413Z,88.00
2017-08-01T01:56:26.734Z,88.10
2017-08-01T01:58:55.081Z,88.10
2017-08-01T02:01:23.399Z,88.70
2017-08-01T02:03:51.734Z,88.50
2017-08-01T02:06:20.085Z,89.00
2017-08-01T02:08:48.418Z,90.50
2017-08-01T02:11:16.757Z,90.80
2017-08-01T02:13:45.105Z,90.90
2017-08-01T02:16:13.475Z,91.00
2017-08-01T02:18:41.801Z,90.90
2017-08-01T02:21:10.157Z,90.50
2017-08-01T02:23:38.475Z,90.40
2017-08-01T02:26:06.817Z,90.30
2017-08-01T02:28:35.163Z,90.50
2017-08-01T02:31:03.511Z,90.60
2017-08-01T02:33:31.840Z,90.30
2017-08-01T02:36:00.195Z,90.30
2017-08-01T02:38:28.531Z,90.00
2017-08-01T02:40:56.890Z,89.90
2017-08-01T02:43:25.210Z,90.00
2017-08-01T02:45:53.531Z,89.00
2017-08-01T02:48:21.885Z,88.60
2017-08-01T02:50:50.993Z,89.10
2017-08-01T02:53:19.350Z,88.10
2017-08-01T02:55:47.673Z,88.00
2017-08-01T02:58:16.017Z,87.50
2017-08-01T03:00:44.438Z,87.50
2017-08-01T03:03:14.451Z,87.10
2017-08-01T03:05:42.771Z,86.70
2017-08-01T03:08:11.110Z,86.60
2017-08-01T03:10:39.416Z,86.70
2017-08-01T03:13:07.758Z,85.90
2017-08-01T03:15:36.073Z,85.90
2017-08-01T03:18:04.395Z,85.00
2017-08-01T03:20:32.739Z,84.80
2017-08-01T03:23:01.056Z,83.50
2017-08-01T03:25:29.395Z,83.50
2017-08-01T03:27:57.709Z,84.00
2017-08-01T03:30:26.126Z,84.50
2017-08-01T03:32:54.428Z,85.90
2017-08-01T03:35:22.776Z,85.90
2017-08-01T03:37:51.158Z,85.60
2017-08-01T03:40:19.502Z,85.60
2017-08-01T03:42:47.815Z,84.70
2017-08-01T03:45:16.148Z,85.50
2017-08-01T03:47:44.488Z,84.70
2017-08-01T03:50:12.802Z,85.50
2017-08-01T03:52:41.125Z,85.60
2017-08-01T03:55:09.439Z,86.00
2017-08-01T03:57:37.796Z,85.20
2017-08-01T04:00:06.114Z,85.20
2017-08-01T04:02:34.470Z,84.70
2017-08-01T04:05:02.795Z,84.30
2017-08-01T04:07:31.137Z,86.00
2017-08-01T04:09:59.452Z,86.60
2017-08-01T04:12:27.759Z,87.50
2017-08-01T04:14:56.090Z,87.00
2017-08-01T04:17:24.401Z,86.60
2017-08-01T04:19:52.738Z,87.00
2017-08-01T04:22:21.053Z,87.10
2017-08-01T04:24:49.400Z,87.10
2017-08-01T04:27:17.712Z,86.00
2017-08-01T04:29:46.056Z,85.80
2017-08-01T04:32:14.408Z,85.00
2017-08-01T04:34:42.756Z,85.70
2017-08-01T04:37:11.077Z,85.80
2017-08-01T04:39:39.382Z,86.10
2017-08-01T04:42:08.299Z,85.80
2017-08-01T04:44:48.619Z,87.20
2017-08-01T04:47:18.908Z,86.60
2017-08-01T04:49:47.238Z,86.20
2017-08-01T04:52:15.579Z,86.10
2017-08-01T04:54:43.994Z,85.80
2017-08-01T04:57:12.331Z,86.10
2017-08-01T04:59:40.750Z,86.70
2017-08-01T05:02:09.177Z,87.20
2017-08-01T05:04:37.495Z,86.90
2017-08-01T05:07:06.727Z,88.40
2017-08-01T05:09:35.080Z,88.40
2017-08-01T05:12:03.389Z,89.90
2017-08-01T05:14:31.732Z,88.80
2017-08-01T05:17:00.052Z,89.10
2017-08-01T05:19:28.388Z,89.10
2017-08-01T05:21:56.711Z,89.00
2017-08-01T05:24:25.060Z,88.20
2017-08-01T05:26:53.381Z,87.50
2017-08-01T05:29:22.638Z,88.50
2017-08-01T05:31:50.958Z,87.80
2017-08-01T05:34:19.298Z,87.90
2017-08-01T05:36:47.597Z,87.90
2017-08-01T05:39:15.930Z,87.90
2017-08-01T05:41:44.243Z,87.90
2017-08-01T05:44:12.556Z,87.20
2017-08-01T05:46:40.909Z,86.40
2017-08-01T05:49:09.220Z,86.90
2017-08-01T05:51:37.563Z,86.70
2017-08-01T05:54:05.888Z,86.60
2017-08-01T05:56:34.247Z,86.60
2017-08-01T05:59:02.568Z,85.80
2017-08-01T06:01:30.888Z,85.90
2017-08-01T06:03:59.211Z,85.70
2017-08-01T06:06:27.561Z,83.80
2017-08-01T06:08:55.870Z,84.80
2017-08-01T06:11:24.215Z,83.00
2017-08-01T06:13:52.538Z,81.60
2017-08-01T06:16:20.866Z,82.80
2017-08-01T06:18:49.199Z,82.60
2017-08-01T06:21:17.513Z,80.90
2017-08-01T06:23:45.852Z,81.50
2017-08-01T06:26:14.159Z,80.10
2017-08-01T06:28:42.523Z,79.00
2017-08-01T06:31:10.857Z,79.50
2017-08-01T06:33:39.196Z,79.30
2017-08-01T06:36:07.516Z,79.30
2017-08-01T06:38:35.857Z,77.50
2017-08-01T06:41:04.162Z,77.00
2017-08-01T06:43:32.515Z,77.90
2017-08-01T06:46:00.835Z,77.00
2017-08-01T06:48:29.141Z,76.60
2017-08-01T06:50:57.478Z,75.30
2017-08-01T06:53:25.799Z,74.70
2017-08-01T06:55:54.130Z,75.10
2017-08-01T06:58:22.455Z,74.20
2017-08-01T07:00:50.789Z,72.80
2017-08-01T07:03:19.097Z,73.60
2017-08-01T07:05:47.432Z,72.90
2017-08-01T07:08:15.737Z,73.70
2017-08-01T07:10:44.065Z,72.80
2017-08-01T07:13:12.369Z,70.80
2017-08-01T07:15:40.686Z,69.70
2017-08-01T07:18:09.015Z,69.90
2017-08-01T07:20:37.369Z,69.20
2017-08-01T07:23:05.711Z,68.70
2017-08-01T07:25:34.026Z,66.40
2017-08-01T07:28:02.363Z,68.20
2017-08-01T07:30:30.670Z,65.70
2017-08-01T07:32:58.996Z,67.00
2017-08-01T07:35:27.642Z,66.70
2017-08-01T07:37:56.915Z,67.60
2017-08-01T07:40:25.244Z,62.40
2017-08-01T07:42:53.553Z,64.00
2017-08-01T07:45:21.898Z,63.90
2017-08-01T07:47:50.208Z,63.50
2017-08-01T07:50:18.547Z,61.90
2017-08-01T07:52:46.853Z,62.00
2017-08-01T07:55:15.206Z,62.10
2017-08-01T07:57:43.518Z,60.60
2017-08-01T08:00:11.852Z,58.40
2017-08-01T08:02:40.166Z,57.70
2017-08-01T08:05:08.580Z,57.90
2017-08-01T08:07:36.894Z,59.30
2017-08-01T08:10:05.219Z,59.20
2017-08-01T08:12:33.551Z,58.60
2017-08-01T08:15:01.874Z,58.30
2017-08-01T08:17:30.386Z,55.90
2017-08-01T08:19:58.798Z,57.80
2017-08-01T08:31:27.891Z,55.60
2017-08-01T08:33:56.283Z,55.70
2017-08-01T08:36:24.591Z,56.80
2017-08-01T08:38:52.930Z,56.40
2017-08-01T08:41:21.248Z,53.30
2017-08-01T08:43:49.583Z,52.90
2017-08-01T08:46:17.923Z,54.30
2017-08-01T08:48:46.591Z,55.20
2017-08-01T08:51:14.914Z,55.80
2017-08-01T08:53:43.284Z,57.30
2017-08-01T08:56:11.603Z,56.90
2017-08-01T08:58:39.921Z,56.90
2017-08-01T09:01:08.276Z,53.90
2017-08-01T09:03:36.585Z,57.40
2017-08-01T09:06:04.917Z,55.10
2017-08-01T09:08:33.228Z,53.80
2017-08-01T09:11:01.553Z,53.70
2017-08-01T09:13:29.876Z,54.20
2017-08-01T09:15:58.203Z,50.30
2017-08-01T09:18:26.568Z,50.80
2017-08-01T09:20:55.012Z,53.80
2017-08-01T09:23:24.242Z,50.70
2017-08-01T09:25:52.586Z,51.80
2017-08-01T09:28:20.923Z,52.70
2017-08-01T09:30:49.226Z,53.90
2017-08-01T09:33:17.785Z,51.80
2017-08-01T09:35:46.102Z,50.40
2017-08-01T09:38:14.442Z,49.40
2017-08-01T09:40:42.760Z,50.80
2017-08-01T09:43:11.102Z,49.20
2017-08-01T09:45:39.412Z,51.20
2017-08-01T09:48:07.853Z,49.70
2017-08-01T09:50:36.162Z,50.20
2017-08-01T09:53:04.490Z,50.00
2017-08-01T09:55:32.806Z,48.30
2017-08-01T09:58:01.112Z,48.70
2017-08-01T10:00:29.434Z,47.60
2017-08-01T10:02:57.955Z,45.00
2017-08-01T10:05:26.273Z,46.00
2017-08-01T10:07:54.586Z,45.40
2017-08-01T10:10:22.924Z,45.70
2017-08-01T10:12:51.279Z,45.30
2017-08-01T10:15:19.614Z,43.90
2017-08-01T10:17:47.956Z,47.50
2017-08-01T10:20:16.282Z,45.00
2017-08-01T10:22:44.603Z,43.90
2017-08-01T10:25:12.940Z,44.00
2017-08-01T10:27:41.258Z,42.80
2017-08-01T10:30:09.556Z,41.30
2017-08-01T10:32:37.879Z,38.80
2017-08-01T10:35:06.193Z,40.30
2017-08-01T10:37:34.519Z,37.10
2017-08-01T10:40:02.822Z,39.40
2017-08-01T10:42:31.151Z,39.20
2017-08-01T10:44:59.465Z,40.50
2017-08-01T10:47:27.808Z,39.40
2017-08-01T10:49:56.112Z,40.90
2017-08-01T10:52:24.459Z,41.50
2017-08-01T10:54:52.778Z,44.30
2017-08-01T10:57:21.121Z,44.00
2017-08-01T10:59:49.436Z,45.80
2017-08-01T11:02:17.738Z,44.40
2017-08-01T11:04:46.066Z,40.50
2017-08-01T11:07:14.387Z,41.20
2017-08-01T11:09:42.731Z,39.20
2017-08-01T11:12:11.083Z,41.80
2017-08-01T11:14:39.419Z,40.20
2017-08-01T11:17:07.734Z,42.40
2017-08-01T11:19:36.058Z,40.30
2017-08-01T11:22:04.371Z,42.70
2017-08-01T11:24:32.703Z,40.80
2017-08-01T11:27:01.116Z,41.20
2017-08-01T11:29:29.471Z,45.30
2017-08-01T11:31:58.675Z,42.00
2017-08-01T11:34:26.986Z,41.40
2017-08-01T11:36:55.316Z,41.40
2017-08-01T11:39:23.718Z,43.30
2017-08-01T11:41:52.055Z,42.60
2017-08-01T11:44:20.376Z,42.70
2017-08-01T11:46:48.715Z,43.10
2017-08-01T11:49:17.014Z,41.90
2017-08-01T11:51:45.362Z,42.00
2017-08-01T11:54:13.674Z,41.10
2017-08-01T11:56:42.012Z,39.60
2017-08-01T11:59:10.322Z,41.20
2017-08-01T12:01:38.675Z,41.10
2017-08-01T12:04:07.000Z,42.10
2017-08-01T12:06:35.331Z,39.70
2017-08-01T12:09:03.634Z,41.10
2017-08-01T12:11:31.992Z,42.90
2017-08-01T12:14:00.303Z,41.70
2017-08-01T12:16:28.626Z,41.00
2017-08-01T12:18:56.960Z,45.70
2017-08-01T12:21:25.269Z,44.90
2017-08-01T12:23:53.609Z,44.40
2017-08-01T12:26:21.930Z,41.10
2017-08-01T12:28:50.266Z,42.70
2017-08-01T12:31:18.580Z,44.20
2017-08-01T12:33:46.916Z,44.70
2017-08-01T12:36:15.226Z,44.20
2017-08-01T12:38:43.575Z,47.50
2017-08-01T12:41:11.902Z,44.30
2017-08-01T12:46:40.367Z,45.00
2017-08-01T12:49:08.702Z,45.80
2017-08-01T12:51:37.016Z,42.60
2017-08-01T12:54:05.321Z,42.40
2017-08-01T12:56:33.653Z,41.60
2017-08-01T12:59:01.958Z,41.10
2017-08-01T13:01:30.286Z,43.30
2017-08-01T13:03:58.599Z,42.80
2017-08-01T13:06:26.935Z,42.00
2017-08-01T13:08:55.259Z,42.70
2017-08-01T13:11:23.597Z,43.70
2017-08-01T13:13:51.905Z,42.80
2017-08-01T13:16:20.305Z,43.00
2017-08-01T13:18:48.705Z,41.90
2017-08-01T13:21:17.022Z,44.10
2017-08-01T13:23:45.352Z,43.40
2017-08-01T13:26:13.659Z,43.60
2017-08-01T13:28:41.992Z,42.30
2017-08-01T13:31:10.306Z,42.90
2017-08-01T13:33:38.659Z,42.90
2017-08-01T13:36:06.983Z,42.30
2017-08-01T13:38:35.322Z,45.00
2017-08-01T13:41:03.636Z,43.20
2017-08-01T13:43:31.975Z,42.60
2017-08-01T13:46:00.276Z,44.20
2017-08-01T13:48:31.857Z,42.90
2017-08-01T13:51:00.162Z,41.90
2017-08-01T13:53:28.473Z,41.90
2017-08-01T13:55:56.815Z,39.90
2017-08-01T13:58:25.120Z,42.80
2017-08-01T14:00:53.444Z,44.50
2017-08-01T14:03:21.755Z,42.40
2017-08-01T14:05:50.094Z,43.80
2017-08-01T14:08:18.416Z,43.30
2017-08-01T14:10:46.759Z,42.90
2017-08-01T14:13:15.075Z,43.40
2017-08-01T14:15:43.410Z,41.60
2017-08-01T14:18:12.629Z,41.60
2017-08-01T14:20:40.966Z,41.30
2017-08-01T14:23:09.279Z,41.80
2017-08-01T14:25:37.598Z,42.60
2017-08-01T14:28:05.922Z,41.90
2017-08-01T14:30:34.235Z,41.70
2017-08-01T14:33:02.562Z,42.50
2017-08-01T14:35:30.870Z,43.40
2017-08-01T14:37:59.215Z,45.20
2017-08-01T14:40:27.585Z,46.90
2017-08-01T14:42:55.918Z,47.20
2017-08-01T14:45:24.243Z,48.50
2017-08-01T14:47:52.608Z,49.00
2017-08-01T14:50:20.930Z,50.00
2017-08-01T14:52:49.241Z,50.40
2017-08-01T14:55:17.578Z,51.40
2017-08-01T14:57:45.918Z,52.00
2017-08-01T15:00:14.875Z,51.30
2017-08-01T15:02:43.374Z,51.30
2017-08-01T15:05:11.985Z,50.00
2017-08-01T15:07:41.413Z,50.30
2017-08-01T15:10:09.759Z,50.40
2017-08-01T15:12:38.077Z,49.80
2017-08-01T15:15:06.411Z,50.50
2017-08-01T15:17:34.735Z,50.20
2017-08-01T15:20:03.067Z,50.20
2017-08-01T15:22:31.934Z,50.70
2017-08-01T15:25:00.272Z,50.60
2017-08-01T15:27:28.935Z,50.00
2017-08-01T15:29:57.302Z,49.90
2017-08-01T15:32:26.563Z,50.90
2017-08-01T15:34:54.883Z,49.80
2017-08-01T15:37:23.323Z,50.40
2017-08-01T15:39:51.632Z,50.10
2017-08-01T15:42:19.967Z,51.10
2017-08-01T15:44:48.595Z,51.00
2017-08-01T15:47:16.962Z,51.20
2017-08-01T15:49:46.193Z,51.50
2017-08-01T15:52:14.534Z,51.40
2017-08-01T15:54:43.102Z,51.70
2017-08-01T15:57:11.505Z,51.50
2017-08-01T15:59:39.824Z,51.70
2017-08-01T16:02:08.184Z,51.60
2017-08-01T16:04:36.743Z,51.10
2017-08-01T16:07:05.090Z,51.50
2017-08-01T16:09:33.422Z,51.40
2017-08-01T16:12:01.741Z,52.50
2017-08-01T16:14:30.079Z,52.10
2017-08-01T16:16:58.395Z,52.50
2017-08-01T16:19:27.654Z,54.60
2017-08-01T16:21:55.966Z,56.40
2017-08-01T16:24:24.307Z,56.70
2017-08-01T16:26:52.620Z,58.60
2017-08-01T16:29:21.861Z,56.50
2017-08-01T16:31:50.173Z,57.10
2017-08-01T16:34:18.510Z,55.20
2017-08-01T16:36:47.736Z,55.10
2017-08-01T16:39:16.083Z,56.50
2017-08-01T16:41:44.403Z,54.70
2017-08-01T16:44:12.804Z,56.90
2017-08-01T16:46:42.444Z,56.80
2017-08-01T16:49:10.767Z,57.70
2017-08-01T16:51:39.094Z,57.10
2017-08-01T16:57:07.416Z,55.60
2017-08-01T16:59:35.772Z,57.40
2017-08-01T17:02:04.199Z,60.20
2017-08-01T17:04:32.513Z,61.60
2017-08-01T17:07:01.051Z,60.90
2017-08-01T17:09:29.349Z,62.50
2017-08-01T17:11:57.770Z,62.10
2017-08-01T17:14:26.138Z,61.20
2017-08-01T17:16:54.617Z,61.30
2017-08-01T17:19:22.946Z,61.00
2017-08-01T17:21:51.285Z,60.80
2017-08-01T17:24:20.529Z,60.60
2017-08-01T17:26:48.873Z,62.90
2017-08-01T17:29:17.180Z,62.70
2017-08-01T17:31:45.845Z,62.60
2017-08-01T17:34:15.064Z,63.70
2017-08-01T17:36:43.402Z,66.70
2017-08-01T17:39:12.140Z,68.80
2017-08-01T17:41:41.358Z,68.40
2017-08-01T17:44:09.686Z,71.40
2017-08-01T17:46:38.256Z,73.30
2017-08-01T17:49:06.713Z,73.90
2017-08-01T17:51:35.037Z,73.80
2017-08-01T17:54:03.512Z,72.40
2017-08-01T17:56:32.160Z,71.30
2017-08-01T17:59:00.504Z,71.70
2017-08-01T18:01:28.814Z,72.10
2017-08-01T18:03:57.191Z,73.70
2017-08-01T18:06:25.850Z,73.10
2017-08-01T18:08:54.368Z,73.70
2017-08-01T18:11:22.683Z,73.30
2017-08-01T18:13:51.023Z,73.70
2017-08-01T18:16:20.249Z,73.50
2017-08-01T18:18:48.553Z,74.20
2017-08-01T18:21:16.895Z,75.50
2017-08-01T18:23:45.210Z,75.00
2017-08-01T18:26:13.546Z,74.70
2017-08-01T18:28:42.782Z,75.10
2017-08-01T18:31:12.038Z,74.80
2017-08-01T18:33:40.355Z,75.40
2017-08-01T18:36:08.770Z,76.50
2017-08-01T18:38:37.083Z,75.80
2017-08-01T18:41:05.434Z,76.70
2017-08-01T18:43:33.764Z,76.60
2017-08-01T18:46:02.121Z,77.50
2017-08-01T18:48:30.451Z,77.00
2017-08-01T18:50:58.889Z,78.20
2017-08-01T18:53:27.208Z,77.20
2017-08-01T18:55:55.515Z,76.20
2017-08-01T18:58:23.845Z,76.20
2017-08-01T19:00:52.163Z,77.60
2017-08-01T19:03:20.507Z,77.50
2017-08-01T19:05:48.832Z,78.00
2017-08-01T19:08:17.210Z,78.30
2017-08-01T19:10:45.527Z,78.60
2017-08-01T19:13:13.875Z,79.00
2017-08-01T19:15:43.108Z,79.00
2017-08-01T19:18:11.489Z,79.70
2017-08-01T19:20:40.099Z,80.50
2017-08-01T19:23:08.460Z,79.80
2017-08-01T19:25:36.858Z,82.60
2017-08-01T19:28:05.186Z,81.20
2017-08-01T19:30:36.688Z,80.50
2017-08-01T19:33:05.013Z,81.30
2017-08-01T19:35:39.436Z,81.60
2017-08-01T19:38:11.373Z,80.20
2017-08-01T19:40:45.558Z,80.80
2017-08-01T19:43:13.990Z,81.60
2017-08-01T19:46:03.142Z,80.40
2017-08-01T19:48:31.546Z,81.20
2017-08-01T19:51:01.085Z,82.00
2017-08-01T19:53:29.479Z,81.70
2017-08-01T19:55:59.303Z,82.00
2017-08-01T19:58:27.615Z,82.20
2017-08-01T20:00:55.954Z,82.70
2017-08-01T20:03:24.275Z,83.20
2017-08-01T20:05:52.645Z,83.20
2017-08-01T20:08:20.960Z,83.30
2017-08-01T20:10:49.307Z,83.50
2017-08-01T20:13:17.612Z,83.70
2017-08-01T20:15:45.948Z,84.20
2017-08-01T20:18:14.298Z,84.60
2017-08-01T20:20:42.624Z,84.50
2017-08-01T20:23:10.975Z,84.90
2017-08-01T20:25:39.291Z,85.20
2017-08-01T20:28:07.637Z,85.90
2017-08-01T20:30:35.967Z,89.60
2017-08-01T20:33:04.311Z,90.10
2017-08-01T20:35:32.715Z,90.00
2017-08-01T20:38:01.054Z,90.10
2017-08-01T20:40:29.379Z,90.70
2017-08-01T20:42:57.859Z,90.50
2017-08-01T20:45:26.298Z,89.30
2017-08-01T20:47:54.618Z,88.40
2017-08-01T20:50:22.957Z,87.20
2017-08-01T20:52:51.291Z,84.80
2017-08-01T20:55:19.644Z,85.10
2017-08-01T20:57:47.966Z,85.50
2017-08-01T21:00:16.305Z,84.30
2017-08-01T21:02:44.619Z,84.50
2017-08-01T21:05:12.975Z,84.70
2017-08-01T21:07:41.299Z,85.00
2017-08-01T21:10:09.644Z,84.50
2017-08-01T21:12:37.958Z,84.30
2017-08-01T21:15:06.318Z,84.60
2017-08-01T21:17:34.637Z,84.10
2017-08-01T21:20:02.968Z,84.50
2017-08-01T21:22:31.311Z,84.50
2017-08-01T21:24:59.625Z,84.80
2017-08-01T21:27:27.957Z,84.00
2017-08-01T21:29:56.268Z,84.20
2017-08-01T21:32:24.625Z,84.80
2017-08-01T21:34:52.954Z,85.10
2017-08-01T21:37:21.311Z,85.80
2017-08-01T21:39:49.648Z,87.00
2017-08-01T21:42:17.986Z,86.40
2017-08-01T21:44:46.309Z,86.30
2017-08-01T21:47:14.655Z,86.10
2017-08-01T21:49:42.983Z,85.40
2017-08-01T21:52:11.327Z,84.90
2017-08-01T21:54:39.649Z,85.40
2017-08-01T21:57:07.997Z,86.00
2017-08-01T21:59:55.297Z,85.80
2017-08-01T22:02:23.687Z,85.50
2017-08-01T22:04:52.011Z,85.60
2017-08-01T22:07:20.394Z,85.40
2017-08-01T22:09:48.734Z,85.40
2017-08-01T22:12:17.059Z,86.40
2017-08-01T22:14:45.411Z,86.50
2017-08-01T22:17:13.716Z,86.50
2017-08-01T22:19:42.058Z,85.60
2017-08-01T22:22:10.390Z,85.70
2017-08-01T22:24:38.732Z,85.60
2017-08-01T22:27:07.063Z,85.40
2017-08-01T22:29:35.447Z,86.10
2017-08-01T22:32:03.768Z,85.30
2017-08-01T22:34:32.109Z,85.70
2017-08-01T22:37:00.439Z,85.90
2017-08-01T22:39:28.782Z,85.10
2017-08-01T22:41:57.107Z,84.30
2017-08-01T22:44:25.510Z,84.70
2017-08-01T22:46:53.860Z,86.50
2017-08-01T22:49:22.178Z,85.60
2017-08-01T22:51:50.518Z,85.60
2017-08-01T22:54:18.838Z,85.70
2017-08-01T22:56:47.173Z,85.80
2017-08-01T22:59:15.502Z,84.70
2017-08-01T23:01:43.853Z,85.20
2017-08-01T23:04:12.160Z,85.50
2017-08-01T23:06:40.499Z,86.00
2017-08-01T23:09:08.829Z,85.60
2017-08-01T23:11:37.195Z,85.40
2017-08-01T23:14:05.760Z,86.10
2017-08-01T23:16:34.098Z,85.60
2017-08-01T23:19:02.439Z,85.30
2017-08-01T23:21:30.755Z,85.00
2017-08-01T23:23:59.105Z,85.40
2017-08-01T23:26:27.418Z,85.30
2017-08-01T23:28:55.774Z,85.50
2017-08-01T23:31:24.092Z,84.80
2017-08-01T23:33:52.430Z,84.30
2017-08-01T23:36:20.759Z,84.10
2017-08-01T23:38:49.110Z,84.30
2017-08-01T23:41:29.828Z,84.30
2017-08-01T23:43:58.224Z,84.80
2017-08-01T23:46:26.550Z,86.00
2017-08-01T23:48:54.899Z,85.30
2017-08-01T23:51:23.218Z,84.10
2017-08-01T23:53:51.538Z,83.70
2017-08-01T23:56:19.894Z,84.00
2017-08-01T23:58:48.236Z,83.60
